Time;durP1;ratioP1;P1;durP2;ratioP2;P2;SDS_P1;SDS_P2;PMS_P1;PMS_P2;Temp;Humidity;BMP_temperature;BMP_pressure;BME280_temperature;BME280_humidity;BME280_pressure;Samples;Min_cycle;Max_cycle;Signal;HPM_P1;HPM_P2
2021/08/26 00:07:48;;;;;;;3.47;2.08;;;;;;;18.86;60.25;99662.53;5954727;24;20064;-82
2021/08/26 00:10:24;;;;;;;4.57;2.15;;;;;;;18.79;60.77;99667.59;5932018;24;20028;-82
2021/08/26 00:13:00;;;;;;;6.57;2.28;;;;;;;18.78;60.97;99668.59;5952256;24;20031;-82
2021/08/26 00:15:27;;;;;;;5.75;2.33;;;;;;;18.80;60.07;99663.94;5954564;24;20025;-79
2021/08/26 00:17:59;;;;;;;5.35;2.47;;;;;;;18.75;60.62;99668.84;5954110;24;20111;-79
2021/08/26 00:20:26;;;;;;;6.38;2.17;;;;;;;18.74;60.05;99652.03;5954636;24;20025;-82
2021/08/26 00:22:53;;;;;;;5.53;1.98;;;;;;;18.72;60.27;99662.00;6026460;23;20023;-82
2021/08/26 00:25:20;;;;;;;8.75;2.55;;;;;;;18.70;60.58;99657.78;6044375;23;20023;-82
2021/08/26 00:27:47;;;;;;;7.95;2.35;;;;;;;18.67;60.18;99661.59;6044703;23;20477;-82
2021/08/26 00:30:14;;;;;;;9.10;2.63;;;;;;;18.65;60.34;99657.38;6044386;23;20049;-82
2021/08/26 00:32:45;;;;;;;5.57;2.58;;;;;;;18.59;61.13;99658.78;6044757;23;20350;-81
2021/08/26 00:35:11;;;;;;;3.63;2.22;;;;;;;18.60;60.43;99648.00;6044952;23;20347;-81
2021/08/26 00:37:38;;;;;;;8.40;2.20;;;;;;;18.57;60.61;99648.25;6069539;23;20049;-81
2021/08/26 00:40:06;;;;;;;5.07;2.05;;;;;;;18.55;60.88;99644.91;6044440;23;20035;-81
2021/08/26 00:42:35;;;;;;;10.45;2.72;;;;;;;18.54;61.25;99640.53;6044365;23;20109;-82
2021/08/26 00:45:04;;;;;;;7.15;2.40;;;;;;;18.53;61.16;99632.69;6044579;23;20029;-81
2021/08/26 00:47:37;;;;;;;6.78;2.45;;;;;;;18.50;61.35;99641.81;6044325;23;20110;-82
2021/08/26 00:50:05;;;;;;;7.07;2.78;;;;;;;18.51;60.94;99640.84;6044157;23;20030;-82
2021/08/26 00:52:36;;;;;;;9.05;2.17;;;;;;;18.48;61.57;99636.66;6044839;23;20029;-82
2021/08/26 00:58:32;;;;;;;10.07;2.60;;;;;;;18.49;60.68;99632.13;6069715;23;20070;-82
2021/08/26 01:01:02;;;;;;;6.25;2.47;;;;;;;18.47;61.38;99628.78;6044185;23;20022;-81
2021/08/26 01:04:23;;;;;;;10.90;2.78;;;;;;;18.42;61.05;99628.34;6044595;23;20446;-81
2021/08/26 01:09:49;;;;;;;8.75;2.78;;;;;;;18.43;61.24;99625.53;6069916;23;20027;-80
2021/08/26 01:12:22;;;;;;;7.50;2.28;;;;;;;18.44;61.06;99631.72;6069763;23;20031;-81
2021/08/26 01:14:50;;;;;;;8.20;2.35;;;;;;;18.42;60.70;99623.00;6039057;23;20367;-82
2021/08/26 01:17:24;;;;;;;7.60;2.85;;;;;;;18.38;60.76;99616.31;6039199;23;20031;-83
2021/08/26 01:19:52;;;;;;;10.32;2.88;;;;;;;18.39;60.69;99607.34;6039448;23;20024;-82
2021/08/26 01:22:49;;;;;;;9.48;3.00;;;;;;;18.32;60.67;99602.56;6039304;23;20037;-82
2021/08/26 01:25:43;;;;;;;9.13;3.08;;;;;;;18.30;60.52;99609.88;6039197;23;20118;-82
2021/08/26 01:28:10;;;;;;;10.02;3.13;;;;;;;18.32;59.78;99601.72;6039136;23;20019;-82
2021/08/26 01:30:42;;;;;;;13.00;3.15;;;;;;;18.31;60.19;99597.38;6039108;23;20031;-82
2021/08/26 01:33:19;;;;;;;12.40;2.42;;;;;;;18.25;60.44;99613.94;6039301;23;20023;-82
2021/08/26 01:35:48;;;;;;;7.65;2.78;;;;;;;18.26;60.04;99605.81;6039014;23;20023;-82
2021/08/26 01:38:23;;;;;;;10.13;2.67;;;;;;;18.22;60.24;99610.56;6039343;23;20031;-82
2021/08/26 01:41:02;;;;;;;9.77;2.97;;;;;;;18.19;60.63;99615.31;6039880;23;20023;-82
2021/08/26 01:43:30;;;;;;;7.35;3.05;;;;;;;18.22;60.18;99609.72;6038784;23;20029;-82
2021/08/26 01:45:57;;;;;;;8.68;2.88;;;;;;;18.18;60.29;99609.19;6038824;23;20100;-82
2021/08/26 01:48:44;;;;;;;12.55;2.92;;;;;;;18.13;60.68;99607.91;6039320;23;20347;-82
2021/08/26 01:51:11;;;;;;;12.15;3.75;;;;;;;18.16;60.40;99604.97;6041056;23;20023;-82
2021/08/26 01:53:37;;;;;;;11.55;2.78;;;;;;;18.15;60.29;99605.94;6038817;23;20031;-82
2021/08/26 01:56:34;;;;;;;9.68;3.40;;;;;;;18.10;60.61;99607.19;6039206;23;20023;-82
2021/08/26 01:59:01;;;;;;;12.40;2.80;;;;;;;18.16;60.05;99604.97;6038850;23;20023;-82
2021/08/26 02:01:27;;;;;;;9.25;2.90;;;;;;;18.14;60.35;99614.91;6039079;23;20027;-82
2021/08/26 02:03:55;;;;;;;11.10;2.75;;;;;;;18.12;60.56;99604.41;6038562;23;20035;-82
2021/08/26 02:06:22;;;;;;;15.85;3.20;;;;;;;18.12;60.59;99603.56;6039128;23;20482;-79
2021/08/26 02:08:49;;;;;;;14.52;3.33;;;;;;;18.12;60.72;99604.41;6039134;23;20475;-79
2021/08/26 02:11:17;;;;;;;9.60;3.03;;;;;;;18.10;60.79;99596.53;6038727;23;20106;-79
2021/08/26 02:13:44;;;;;;;9.63;3.50;;;;;;;18.12;60.44;99598.25;6038167;23;20031;-79
2021/08/26 02:16:11;;;;;;;10.48;3.05;;;;;;;18.10;60.84;99595.72;6039307;23;20469;-82
2021/08/26 02:18:37;;;;;;;10.57;3.28;;;;;;;18.11;60.90;99589.41;6038645;23;20070;-82
2021/08/26 02:21:06;;;;;;;9.05;3.05;;;;;;;18.07;60.95;99583.50;6038598;23;20023;-79
2021/08/26 02:23:33;;;;;;;8.93;2.75;;;;;;;18.08;61.14;99581.69;6038413;23;20106;-80
2021/08/26 02:26:01;;;;;;;10.48;2.88;;;;;;;18.06;61.30;99579.13;6039079;23;20029;-79
2021/08/26 02:28:27;;;;;;;15.23;3.00;;;;;;;18.06;60.95;99576.47;6038429;23;20418;-79
2021/08/26 02:30:54;;;;;;;12.68;3.45;;;;;;;18.04;61.11;99570.44;6038576;23;20038;-79
2021/08/26 02:33:21;;;;;;;9.13;2.72;;;;;;;18.04;61.07;99566.94;6038482;23;20031;-82
2021/08/26 02:39:35;;;;;;;13.60;3.30;;;;;;;18.04;60.99;99575.78;6040044;23;20537;-82
2021/08/26 02:42:20;;;;;;;11.32;3.50;;;;;;;17.99;61.61;99586.00;6039238;23;20037;-82
2021/08/26 02:44:47;;;;;;;9.18;3.03;;;;;;;18.03;60.95;99575.91;6039013;23;20443;-82
2021/08/26 02:47:13;;;;;;;12.05;3.00;;;;;;;18.02;61.10;99577.72;6038499;23;20102;-82
2021/08/26 02:50:11;;;;;;;11.00;3.00;;;;;;;17.96;61.79;99578.28;6039756;23;20025;-82
2021/08/26 02:52:38;;;;;;;14.60;3.38;;;;;;;17.99;61.09;99580.69;6038592;23;20023;-82
2021/08/26 02:55:05;;;;;;;10.70;2.97;;;;;;;17.97;61.03;99585.28;6038541;23;20033;-82
2021/08/26 02:57:34;;;;;;;12.15;3.25;;;;;;;17.93;61.50;99575.91;6039790;23;20347;-82
2021/08/26 03:00:00;;;;;;;14.98;3.28;;;;;;;17.93;61.16;99574.09;6040114;23;20023;-82
2021/08/26 03:02:27;;;;;;;11.48;3.30;;;;;;;17.92;61.46;99568.91;6040338;23;20359;-82
2021/08/26 03:08:13;;;;;;;13.07;3.58;;;;;;;17.91;61.25;99567.22;6040290;23;20041;-82
2021/08/26 03:10:40;;;;;;;13.65;3.63;;;;;;;17.90;60.98;99571.69;6038881;23;20122;-81
2021/08/26 03:13:09;;;;;;;10.73;2.97;;;;;;;17.88;61.24;99572.81;6041245;23;20316;-81
2021/08/26 03:15:36;;;;;;;10.15;3.00;;;;;;;17.86;61.18;99569.47;6014683;23;20027;-79
2021/08/26 03:18:06;;;;;;;13.25;3.63;;;;;;;17.83;61.73;99570.59;6014734;23;20028;-79
2021/08/26 03:20:33;;;;;;;10.73;2.85;;;;;;;17.82;61.28;99572.41;6015136;23;20027;-79
2021/08/26 03:23:03;;;;;;;9.48;2.72;;;;;;;17.80;61.67;99576.19;6014705;23;20029;-82
2021/08/26 03:25:30;;;;;;;11.65;2.58;;;;;;;17.80;61.42;99568.22;6015049;23;20027;-79
2021/08/26 03:27:56;;;;;;;10.02;2.55;;;;;;;17.79;61.39;99566.53;6014855;23;20032;-79
2021/08/26 03:30:24;;;;;;;10.35;3.05;;;;;;;17.76;61.48;99562.31;6015168;23;20316;-79
2021/08/26 03:32:51;;;;;;;13.90;3.00;;;;;;;17.76;61.31;99558.81;6014639;23;20030;-79
2021/08/26 03:35:23;;;;;;;9.07;2.80;;;;;;;17.73;61.69;99562.59;6039451;23;20030;-79
2021/08/26 03:37:50;;;;;;;10.23;3.13;;;;;;;17.75;61.54;99573.13;6014793;23;20023;-79
2021/08/26 03:40:17;;;;;;;10.82;3.03;;;;;;;17.74;61.62;99566.09;6015843;23;20027;-79
2021/08/26 03:43:11;;;;;;;11.50;3.47;;;;;;;17.69;62.08;99563.84;6016363;23;20035;-79
2021/08/26 03:45:37;;;;;;;6.00;2.72;;;;;;;17.74;61.39;99564.28;6016747;23;20031;-79
2021/08/26 03:48:04;;;;;;;8.65;2.72;;;;;;;17.74;61.64;99576.72;6016474;23;20031;-80
2021/08/26 03:50:31;;;;;;;8.40;2.50;;;;;;;17.72;61.45;99566.25;6016370;23;20031;-80
2021/08/26 03:52:58;;;;;;;9.05;3.10;;;;;;;17.71;61.35;99561.88;6016655;23;20030;-79
2021/08/26 03:55:32;;;;;;;10.80;2.65;;;;;;;17.67;62.07;99561.31;6016154;23;20023;-80
2021/08/26 03:57:58;;;;;;;9.77;2.60;;;;;;;17.70;61.53;99555.75;6016783;23;20415;-80
2021/08/26 04:00:25;;;;;;;11.95;2.70;;;;;;;17.69;61.49;99566.53;6016542;23;20034;-81
2021/08/26 04:03:02;;;;;;;9.95;2.97;;;;;;;17.63;62.04;99562.59;6016806;23;20447;-82
2021/08/26 04:05:29;;;;;;;12.40;3.30;;;;;;;17.64;61.53;99552.78;6016464;23;20075;-82
2021/08/26 04:07:56;;;;;;;10.65;3.22;;;;;;;17.61;61.65;99556.56;6016355;23;20108;-82
2021/08/26 04:10:24;;;;;;;8.85;2.78;;;;;;;17.59;61.75;99558.50;6016285;23;20027;-82
2021/08/26 04:12:50;;;;;;;11.43;3.03;;;;;;;17.58;61.70;99556.84;6041024;23;20038;-81
2021/08/26 04:15:17;;;;;;;9.23;2.47;;;;;;;17.55;61.70;99557.97;6041320;23;20022;-81
2021/08/26 04:18:02;;;;;;;11.38;3.33;;;;;;;17.48;62.41;99551.50;6044739;23;20026;-82
2021/08/26 04:20:42;;;;;;;10.55;2.80;;;;;;;17.46;62.36;99548.16;6044767;23;20363;-82
2021/08/26 04:23:10;;;;;;;13.98;3.03;;;;;;;17.48;61.77;99553.31;6045466;23;20045;-80
2021/08/26 04:25:36;;;;;;;12.05;3.00;;;;;;;17.44;61.91;99547.44;6044066;23;20023;-79
2021/08/26 04:28:06;;;;;;;12.00;3.03;;;;;;;17.41;62.29;99548.53;6044738;23;20026;-80
2021/08/26 04:30:32;;;;;;;11.85;3.20;;;;;;;17.40;62.05;99549.53;6044362;23;20019;-80
2021/08/26 04:33:24;;;;;;;10.80;3.17;;;;;;;17.32;62.68;99558.16;6045546;23;20022;-82
2021/08/26 04:35:52;;;;;;;8.88;2.72;;;;;;;17.36;62.43;99560.56;6044328;23;20027;-82
2021/08/26 04:38:19;;;;;;;10.75;3.13;;;;;;;17.37;62.38;99554.25;6044412;23;20030;-82
2021/08/26 04:40:45;;;;;;;10.45;3.28;;;;;;;17.35;62.42;99562.41;6044385;23;20027;-81
2021/08/26 04:43:16;;;;;;;8.88;3.08;;;;;;;17.35;63.02;99566.88;6044403;23;20022;-82
2021/08/26 04:45:43;;;;;;;10.77;2.83;;;;;;;17.35;62.48;99561.56;6044574;23;20027;-81
2021/08/26 04:48:09;;;;;;;17.58;4.00;;;;;;;17.35;62.41;99557.09;6044650;23;20034;-81
2021/08/26 04:50:39;;;;;;;11.68;3.28;;;;;;;17.32;62.83;99560.84;6044582;23;20027;-80
2021/08/26 04:53:06;;;;;;;12.32;3.50;;;;;;;17.34;62.62;99552.72;6044415;23;20027;-80
2021/08/26 04:55:33;;;;;;;11.25;3.08;;;;;;;17.31;62.64;99561.81;6044512;23;20023;-82
2021/08/26 04:58:02;;;;;;;9.52;3.03;;;;;;;17.29;63.12;99560.28;6044460;23;20029;-82
2021/08/26 05:00:28;;;;;;;10.15;3.30;;;;;;;17.29;62.75;99562.94;6044241;23;20029;-79
2021/08/26 05:02:58;;;;;;;13.15;3.08;;;;;;;17.27;63.12;99567.56;6044776;23;20474;-79
2021/08/26 05:05:25;;;;;;;14.43;3.65;;;;;;;17.28;62.82;99562.13;6044070;23;20138;-81
2021/08/26 05:07:52;;;;;;;9.40;2.95;;;;;;;17.28;62.67;99556.78;6044550;23;20098;-81
2021/08/26 05:10:19;;;;;;;7.95;2.80;;;;;;;17.28;62.90;99563.91;6044401;23;20019;-81
2021/08/26 05:12:46;;;;;;;11.18;3.05;;;;;;;17.27;62.93;99559.59;6044112;23;20034;-81
2021/08/26 05:15:20;;;;;;;11.65;3.55;;;;;;;17.24;63.53;99567.81;6044034;23;20022;-82
2021/08/26 05:17:46;;;;;;;8.10;2.97;;;;;;;17.28;63.22;99569.25;6044517;23;20354;-82
2021/08/26 05:20:13;;;;;;;9.55;3.28;;;;;;;17.28;63.02;99578.06;6044339;23;20482;-81
2021/08/26 05:22:41;;;;;;;9.00;3.13;;;;;;;17.27;63.40;99573.72;6044217;23;20045;-81
2021/08/26 05:25:09;;;;;;;9.70;3.13;;;;;;;17.29;63.24;99578.91;6043677;23;20023;-81
2021/08/26 05:27:35;;;;;;;9.52;2.92;;;;;;;17.30;63.28;99580.56;6044390;23;20101;-81
2021/08/26 05:30:03;;;;;;;10.63;3.25;;;;;;;17.29;63.53;99577.09;6044613;23;20342;-81
2021/08/26 05:32:30;;;;;;;11.80;3.08;;;;;;;17.32;63.28;99575.97;6043959;23;20026;-81
2021/08/26 05:34:59;;;;;;;9.52;2.90;;;;;;;17.33;63.72;99577.66;6043735;23;20030;-81
2021/08/26 05:37:26;;;;;;;15.18;3.65;;;;;;;17.36;63.51;99574.72;6044269;23;20033;-82
2021/08/26 05:39:52;;;;;;;14.27;3.28;;;;;;;17.36;63.50;99569.41;6043859;23;20061;-79
2021/08/26 05:42:20;;;;;;;14.75;3.70;;;;;;;17.38;63.30;99567.44;6044079;23;20027;-79
2021/08/26 05:44:46;;;;;;;11.75;2.90;;;;;;;17.41;63.40;99577.81;6044155;23;20110;-79
2021/08/26 05:47:13;;;;;;;9.10;3.00;;;;;;;17.45;63.34;99583.69;6044080;23;20469;-79
2021/08/26 05:49:55;;;;;;;9.18;2.90;;;;;;;17.44;64.13;99576.69;6044185;23;20077;-79
2021/08/26 05:52:22;;;;;;;12.60;3.28;;;;;;;17.51;63.84;99572.50;6044458;23;20023;-78
2021/08/26 05:54:52;;;;;;;8.30;2.58;;;;;;;17.55;64.63;99573.94;6043562;23;20022;-79
2021/08/26 05:57:18;;;;;;;7.78;2.85;;;;;;;17.62;63.72;99568.91;6044210;23;20027;-79
2021/08/26 05:59:45;;;;;;;10.95;2.78;;;;;;;17.68;64.06;99578.16;6043869;23;20443;-83
2021/08/26 06:02:12;;;;;;;11.85;2.65;;;;;;;17.74;63.57;99582.06;6043574;23;20465;-83
2021/08/26 06:04:38;;;;;;;8.98;2.83;;;;;;;17.79;63.49;99577.19;6069012;23;20030;-83
2021/08/26 06:07:18;;;;;;;8.77;2.45;;;;;;;17.80;64.16;99581.53;6043858;23;20027;-83
2021/08/26 06:09:45;;;;;;;12.88;2.45;;;;;;;17.88;63.55;99583.47;6043711;23;20023;-83
2021/08/26 06:12:12;;;;;;;6.80;2.17;;;;;;;17.91;63.67;99583.22;6043757;23;20022;-80
2021/08/26 06:14:39;;;;;;;10.85;2.45;;;;;;;17.95;63.62;99592.59;6044238;23;20459;-80
2021/08/26 06:17:05;;;;;;;9.60;2.63;;;;;;;17.98;63.55;99587.81;6043678;23;20034;-80
2021/08/26 06:19:32;;;;;;;7.85;2.88;;;;;;;18.02;63.56;99584.88;6043518;23;20027;-79
2021/08/26 06:21:59;;;;;;;12.52;3.10;;;;;;;18.07;63.75;99579.97;6038606;23;20102;-79
2021/08/26 06:24:41;;;;;;;10.10;3.00;;;;;;;18.09;64.15;99581.53;6038415;23;20027;-80
2021/08/26 06:27:08;;;;;;;10.95;2.78;;;;;;;18.20;63.73;99583.22;6040152;23;20031;-80
2021/08/26 06:29:34;;;;;;;8.50;2.38;;;;;;;18.28;64.12;99593.16;6038589;23;20019;-79
2021/08/26 06:32:09;;;;;;;10.52;2.80;;;;;;;18.34;64.35;99581.09;6038890;23;20095;-79
2021/08/26 06:34:36;;;;;;;10.10;2.88;;;;;;;18.46;63.71;99577.28;6038742;23;20035;-79
2021/08/26 06:37:13;;;;;;;6.78;2.85;;;;;;;18.53;63.91;99579.38;6038806;23;20023;-79
2021/08/26 06:39:40;;;;;;;9.85;3.08;;;;;;;18.61;63.25;99575.03;6038599;23;20472;-79
2021/08/26 06:42:07;;;;;;;8.20;3.20;;;;;;;18.68;63.04;99583.28;6039065;23;20397;-79
2021/08/26 06:44:33;;;;;;;9.00;3.20;;;;;;;18.72;62.98;99581.16;6038326;23;20103;-79
2021/08/26 06:47:00;;;;;;;9.18;3.40;;;;;;;18.74;62.86;99584.53;6038822;23;20027;-79
2021/08/26 06:49:32;;;;;;;11.63;3.47;;;;;;;18.73;63.09;99583.69;6039794;23;20019;-79
2021/08/26 06:51:59;;;;;;;11.13;3.17;;;;;;;18.75;62.75;99575.53;6038809;23;20031;-79
2021/08/26 06:54:26;;;;;;;10.05;3.25;;;;;;;18.76;62.40;99579.88;6038328;23;20027;-79
2021/08/26 06:56:55;;;;;;;11.95;3.83;;;;;;;18.73;62.70;99578.34;6038788;23;20122;-79
2021/08/26 06:59:22;;;;;;;10.07;3.63;;;;;;;18.74;62.60;99577.38;6039070;23;20023;-79
2021/08/26 07:01:49;;;;;;;10.18;3.78;;;;;;;18.73;62.49;99585.53;6039824;23;20035;-79
2021/08/26 07:04:19;;;;;;;20.08;4.57;;;;;;;18.71;63.18;99575.00;6038519;23;20031;-79
2021/08/26 07:06:46;;;;;;;12.30;4.22;;;;;;;18.72;62.50;99583.81;6038431;23;20359;-79
2021/08/26 07:09:12;;;;;;;14.27;4.50;;;;;;;18.71;63.02;99579.47;6038033;23;20023;-79
2021/08/26 07:11:39;;;;;;;14.75;4.63;;;;;;;18.72;62.84;99581.16;6038364;23;20024;-79
2021/08/26 07:14:06;;;;;;;16.52;4.47;;;;;;;18.72;62.94;99574.00;6039038;23;20027;-79
2021/08/26 07:16:32;;;;;;;8.90;4.50;;;;;;;18.74;63.10;99580.06;6040322;23;20029;-80
2021/08/26 07:18:59;;;;;;;13.00;4.72;;;;;;;18.78;63.19;99582.41;6040588;23;20334;-79
2021/08/26 07:21:28;;;;;;;15.90;4.75;;;;;;;18.80;63.70;99583.94;6040116;23;20031;-79
2021/08/26 07:23:55;;;;;;;11.70;4.35;;;;;;;18.86;63.46;99583.38;6039869;23;20460;-79
2021/08/26 07:26:21;;;;;;;15.02;4.57;;;;;;;18.92;63.17;99581.09;6041897;23;20106;-80
2021/08/26 07:28:48;;;;;;;15.55;4.78;;;;;;;18.97;63.34;99581.50;6040472;23;20373;-79
2021/08/26 07:31:17;;;;;;;13.32;4.60;;;;;;;19.00;63.20;99579.38;6040340;23;20041;-79
2021/08/26 07:33:44;;;;;;;17.63;4.68;;;;;;;19.06;63.17;99575.31;6039869;23;20037;-79
2021/08/26 07:36:13;;;;;;;15.68;5.43;;;;;;;19.09;62.82;99574.16;6040115;23;20030;-79
2021/08/26 07:38:40;;;;;;;14.70;4.72;;;;;;;19.14;62.62;99569.25;6039760;23;20030;-79
2021/08/26 07:41:09;;;;;;;11.55;3.83;;;;;;;19.16;62.91;99572.59;6039928;23;20033;-79
2021/08/26 07:43:36;;;;;;;17.02;4.90;;;;;;;19.19;62.87;99577.66;6040097;23;20354;-79
2021/08/26 07:46:04;;;;;;;12.73;4.30;;;;;;;19.24;63.13;99571.84;6039624;23;20031;-79
2021/08/26 07:48:31;;;;;;;11.00;4.18;;;;;;;19.30;62.83;99573.94;6041456;23;20030;-79
2021/08/26 07:51:03;;;;;;;11.65;4.18;;;;;;;19.33;63.08;99568.28;6040312;23;20074;-79
2021/08/26 07:53:32;;;;;;;14.23;4.55;;;;;;;19.41;62.37;99572.91;6040467;23;20099;-79
2021/08/26 07:56:03;;;;;;;17.08;4.47;;;;;;;19.44;62.88;99572.56;6040659;23;20031;-79
2021/08/26 07:58:30;;;;;;;12.52;4.53;;;;;;;19.50;62.82;99574.66;6040854;23;20062;-79
2021/08/26 08:01:00;;;;;;;9.57;3.67;;;;;;;19.53;62.58;99573.50;6039971;23;20027;-79
2021/08/26 08:03:28;;;;;;;14.05;4.65;;;;;;;19.60;62.63;99577.28;6039727;23;20031;-79
2021/08/26 08:06:02;;;;;;;19.45;4.90;;;;;;;19.65;62.79;99579.47;6039753;23;20094;-78
2021/08/26 08:08:29;;;;;;;12.68;4.15;;;;;;;19.74;62.55;99575.88;6039762;23;20030;-79
2021/08/26 08:11:12;;;;;;;14.50;4.47;;;;;;;19.80;62.27;99579.78;6039671;23;20031;-80
2021/08/26 08:14:01;;;;;;;14.40;4.68;;;;;;;19.93;61.92;99580.25;6040059;23;20055;-80
2021/08/26 08:16:29;;;;;;;14.30;4.80;;;;;;;20.02;62.14;99580.34;6039698;23;20027;-79
2021/08/26 08:18:56;;;;;;;15.50;5.28;;;;;;;20.10;62.31;99577.75;6040865;23;20062;-79
2021/08/26 08:21:25;;;;;;;13.55;5.13;;;;;;;20.17;61.70;99573.47;6039691;23;20027;-83
2021/08/26 08:23:52;;;;;;;14.95;4.72;;;;;;;20.28;62.08;99574.22;6039909;23;20027;-79
2021/08/26 08:26:18;;;;;;;14.05;4.45;;;;;;;20.37;61.83;99586.63;6040028;23;20045;-79
2021/08/26 08:28:45;;;;;;;18.02;5.07;;;;;;;20.47;61.37;99580.34;6039662;23;20037;-79
2021/08/26 08:31:15;;;;;;;18.08;5.35;;;;;;;20.55;61.34;99583.94;6039995;23;20027;-79
2021/08/26 08:33:44;;;;;;;14.77;4.43;;;;;;;20.63;61.01;99580.47;6039812;23;20027;-80
2021/08/26 08:36:10;;;;;;;17.95;5.32;;;;;;;20.70;61.12;99584.19;6039954;23;20031;-80
2021/08/26 08:38:40;;;;;;;14.93;4.80;;;;;;;20.79;61.25;99581.56;6040913;23;20027;-80
2021/08/26 08:41:07;;;;;;;15.30;4.90;;;;;;;20.90;60.57;99572.47;6039918;23;20388;-80
2021/08/26 08:43:37;;;;;;;15.18;5.20;;;;;;;20.98;60.15;99577.00;6039904;23;20329;-80
2021/08/26 08:46:07;;;;;;;18.00;5.43;;;;;;;21.06;59.73;99579.72;6040914;23;20023;-80
2021/08/26 08:48:38;;;;;;;18.05;5.78;;;;;;;21.13;59.76;99582.59;6039735;23;20040;-80
2021/08/26 08:51:34;;;;;;;15.98;5.47;;;;;;;21.14;59.03;99590.47;5982209;24;20028;-80
2021/08/26 08:54:13;;;;;;;14.15;5.10;;;;;;;21.17;59.27;99584.81;5958739;24;20038;-80
2021/08/26 08:56:40;;;;;;;14.90;5.07;;;;;;;21.22;59.07;99586.97;5958871;24;20030;-80
2021/08/26 08:59:14;;;;;;;15.68;5.00;;;;;;;21.20;58.44;99580.97;5958931;24;20025;-80
2021/08/26 09:01:53;;;;;;;15.30;4.78;;;;;;;21.18;58.32;99583.78;5958453;24;20032;-80
2021/08/26 09:04:21;;;;;;;19.60;4.72;;;;;;;21.20;58.98;99584.44;5958576;24;20392;-80
2021/08/26 09:06:50;;;;;;;17.52;5.10;;;;;;;21.21;59.15;99575.44;5959276;24;20340;-79
2021/08/26 09:09:18;;;;;;;17.98;4.95;;;;;;;21.26;59.54;99582.16;5995579;23;20110;-79
2021/08/26 09:11:51;;;;;;;15.00;4.78;;;;;;;21.29;58.57;99585.34;6039550;23;20026;-80
2021/08/26 09:14:18;;;;;;;15.05;3.97;;;;;;;21.35;58.59;99582.00;6039386;23;20058;-80
2021/08/26 09:20:14;;;;;;;14.82;4.00;;;;;;;21.34;57.37;99576.81;6040300;23;20028;-84
2021/08/26 09:22:41;;;;;;;16.85;3.83;;;;;;;21.35;57.49;99578.50;6039129;23;20546;-84
2021/08/26 09:25:09;;;;;;;12.13;3.63;;;;;;;21.31;58.14;99575.28;6038889;23;20030;-84
2021/08/26 09:28:04;;;;;;;13.10;3.80;;;;;;;21.31;59.18;99577.97;6039486;23;20024;-84
2021/08/26 09:30:31;;;;;;;13.05;4.75;;;;;;;21.45;59.22;99576.50;6039045;23;20027;-84
2021/08/26 09:33:00;;;;;;;11.05;3.60;;;;;;;21.54;58.71;99577.38;6039471;23;20027;-84
2021/08/26 09:35:52;;;;;;;15.15;4.53;;;;;;;21.61;58.38;99577.56;6039239;23;20455;-84
2021/08/26 09:38:25;;;;;;;14.98;4.00;;;;;;;21.71;57.65;99582.75;6040087;23;20466;-84
2021/08/26 09:41:07;;;;;;;;;;;;;;;21.78;58.29;99582.97;6039360;23;20023;-84
2021/08/26 09:43:33;;;;;;;9.65;3.30;;;;;;;21.89;56.88;99579.97;6039097;23;19918;-84
2021/08/26 09:46:00;;;;;;;12.23;3.60;;;;;;;21.90;56.59;99573.59;6038744;23;20027;-84
2021/08/26 09:48:27;;;;;;;11.23;3.45;;;;;;;21.92;56.58;99582.31;6038737;23;20038;-84
2021/08/26 09:50:54;;;;;;;11.88;3.42;;;;;;;21.94;57.20;99582.16;6038857;23;20020;-84
2021/08/26 09:53:25;;;;;;;13.23;3.55;;;;;;;22.00;57.40;99568.94;6039124;23;20046;-84
2021/08/26 09:56:03;;;;;;;14.13;3.43;;;;;;;22.09;57.09;99568.94;6015182;23;20027;-85
2021/08/26 09:58:35;;;;;;;12.88;3.60;;;;;;;22.21;56.50;99569.44;6039164;23;20726;-84
2021/08/26 10:01:17;;;;;;;12.90;3.45;;;;;;;22.32;56.37;99573.63;6038714;23;20023;-84
2021/08/26 10:04:01;;;;;;;9.23;2.70;;;;;;;22.46;56.65;99575.59;6039827;23;20018;-84
2021/08/26 10:06:31;;;;;;;16.77;3.50;;;;;;;22.55;55.92;99570.25;6038790;23;20027;-84
2021/08/26 10:08:59;;;;;;;11.85;4.10;;;;;;;22.63;56.39;99571.09;6038680;23;20034;-85
2021/08/26 10:11:27;;;;;;;15.20;3.33;;;;;;;22.71;55.68;99570.22;6039055;23;20503;-84
2021/08/26 10:14:00;;;;;;;12.77;3.67;;;;;;;22.80;55.22;99571.03;6038488;23;20038;-85
2021/08/26 10:16:27;;;;;;;10.35;3.20;;;;;;;22.92;55.62;99568.81;6040500;23;20186;-85
2021/08/26 10:18:54;;;;;;;13.73;3.35;;;;;;;23.06;55.64;99564.56;6039088;23;20027;-85
2021/08/26 10:21:20;;;;;;;12.50;3.60;;;;;;;23.19;55.05;99564.00;6038324;23;20023;-84
2021/08/26 10:23:47;;;;;;;14.25;3.85;;;;;;;23.30;54.77;99563.59;6038922;23;20455;-79
2021/08/26 10:26:17;;;;;;;13.18;3.00;;;;;;;23.39;53.32;99563.59;6040357;23;20023;-79
2021/08/26 10:28:51;;;;;;;11.52;2.78;;;;;;;23.43;51.98;99567.59;6038618;23;20037;-80
2021/08/26 10:31:31;;;;;;;17.02;4.03;;;;;;;23.43;51.56;99573.81;6040025;23;20026;-80
2021/08/26 10:34:44;;;;;;;12.40;3.25;;;;;;;23.40;51.64;99568.78;6038763;23;20113;-80
2021/08/26 10:37:19;;;;;;;6.85;3.00;;;;;;;23.42;51.62;99568.63;6038956;23;20019;-80
2021/08/26 10:40:36;;;;;;;9.35;3.13;;;;;;;23.41;52.66;99567.78;6038877;23;20026;-80
2021/08/26 10:43:04;;;;;;;12.75;3.38;;;;;;;23.54;53.05;99572.59;6039112;23;20050;-81
2021/08/26 10:45:49;;;;;;;10.48;3.40;;;;;;;23.62;53.11;99562.81;6038417;23;20023;-80
2021/08/26 10:48:21;;;;;;;12.25;3.50;;;;;;;23.78;52.13;99565.34;6038437;23;20028;-81
2021/08/26 10:51:21;;;;;;;17.50;4.13;;;;;;;23.92;52.69;99558.38;6038856;23;20023;-81
2021/08/26 10:57:29;;;;;;;12.85;3.55;;;;;;;24.27;51.60;99554.41;6040286;23;20029;-80
2021/08/26 10:59:56;;;;;;;12.25;3.47;;;;;;;24.35;50.14;99551.66;6038357;23;20031;-80
2021/08/26 11:02:41;;;;;;;18.13;3.33;;;;;;;24.29;50.08;99552.41;6038141;23;20028;-80
2021/08/26 11:05:31;;;;;;;10.50;3.35;;;;;;;24.26;50.53;99552.75;6038608;23;20039;-80
2021/08/26 11:07:58;;;;;;;11.25;3.35;;;;;;;24.42;51.46;99554.44;6021307;23;20035;-80
2021/08/26 11:10:30;;;;;;;9.85;3.35;;;;;;;24.61;52.51;99553.06;6039302;23;20106;-80
2021/08/26 11:13:29;;;;;;;12.70;3.15;;;;;;;25.00;52.42;99547.63;6038667;23;20503;-80
2021/08/26 11:15:56;;;;;;;11.57;3.70;;;;;;;25.52;52.24;99547.59;6038602;23;20062;-80
2021/08/26 11:18:30;;;;;;;7.65;2.50;;;;;;;25.93;49.21;99546.97;6038240;23;20034;-80
2021/08/26 11:20:57;;;;;;;9.25;3.03;;;;;;;26.30;49.13;99540.66;6040908;23;20038;-80
2021/08/26 11:23:45;;;;;;;8.23;3.20;;;;;;;26.52;48.05;99549.53;6043160;23;20030;-80
2021/08/26 11:26:48;;;;;;;10.07;2.97;;;;;;;26.58;44.04;99575.75;6043065;23;20019;-80
2021/08/26 11:29:41;;;;;;;16.33;3.55;;;;;;;26.40;46.44;99584.31;6043609;23;20031;-80
2021/08/26 11:32:12;;;;;;;8.95;2.67;;;;;;;26.07;44.80;99592.94;6025720;23;20027;-80
2021/08/26 11:34:42;;;;;;;12.48;2.97;;;;;;;25.58;45.81;99589.97;6043322;23;20045;-80
2021/08/26 11:37:13;;;;;;;9.27;3.00;;;;;;;25.01;46.90;99603.97;6043585;23;20109;-80
2021/08/26 11:40:04;;;;;;;10.60;2.90;;;;;;;24.39;47.95;99592.47;6043052;23;20023;-79
2021/08/26 11:42:38;;;;;;;8.73;2.95;;;;;;;23.94;48.56;99587.78;6043373;23;20042;-80
2021/08/26 11:45:04;;;;;;;11.43;3.05;;;;;;;23.56;49.46;99583.97;6068493;23;20031;-80
2021/08/26 11:47:35;;;;;;;11.98;3.58;;;;;;;23.19;50.41;99580.13;6043045;23;20023;-80
2021/08/26 11:50:33;;;;;;;10.80;3.40;;;;;;;22.83;51.80;99569.88;6043232;23;20031;-80
2021/08/26 11:53:05;;;;;;;11.40;3.47;;;;;;;22.65;53.29;99569.06;6043119;23;20342;-80
2021/08/26 11:55:41;;;;;;;11.98;3.45;;;;;;;22.52;53.84;99569.56;6043561;23;20058;-80
2021/08/26 12:01:34;;;;;;;14.43;3.65;;;;;;;22.59;56.22;99556.34;6067985;23;20332;-83
2021/08/26 12:04:04;;;;;;;12.98;3.95;;;;;;;22.69;56.52;99556.13;6044783;23;20023;-83
2021/08/26 12:06:36;;;;;;;8.05;3.35;;;;;;;22.81;56.64;99561.13;6044749;23;20069;-80
2021/08/26 12:09:03;;;;;;;11.82;3.60;;;;;;;22.95;55.94;99562.28;6045039;23;20023;-80
2021/08/26 12:11:30;;;;;;;9.27;3.67;;;;;;;23.08;56.44;99561.69;6044590;23;20026;-80
2021/08/26 12:14:05;;;;;;;11.88;3.85;;;;;;;23.17;56.30;99569.56;6044755;23;20442;-80
2021/08/26 12:16:32;;;;;;;11.57;3.47;;;;;;;23.32;56.18;99573.34;6044873;23;20027;-80
2021/08/26 12:19:04;;;;;;;15.35;4.20;;;;;;;23.40;56.39;99566.09;6044941;23;20027;-80